Avon, North Carolina
Current Conditions -  °F | °C
As of 8:51 PM on Friday 21 Nov 2014 (Local Time) from KHSE Reporting Station
Clear Clear  
Wind Chill: 34°   Ceiling: Unl
Heat Index: 40°   Visibility: 10mi
Dew Point: 24°   Wind: 8mph
Humidity: 53%   Direction: 30°NNE
Pressure: 30.54"   Gusts: 17mph
Location:  35.35°N, 75.51°W
Report Text: KHSE 220151Z AUTO 03007G15KT 10SM CLR 04/M04 A3054 RMK AO2 SLP340 T00441044 TSNO
Loading
Personal Weather Stations






























Interactive Weather Map New forecast layout! Learn more

10-Day Weather Forecast

Advertisements
Track Severe Weather on mobile